createdAt,value
2022-11-14T00:01:24.069Z,88.40
2022-11-14T00:03:53.126Z,88.50
2022-11-14T00:06:21.291Z,88.50
2022-11-14T00:08:48.995Z,88.50
2022-11-14T00:11:16.666Z,88.50
2022-11-14T00:13:44.407Z,88.50
2022-11-14T00:16:12.127Z,88.40
2022-11-14T00:18:40.141Z,88.40
2022-11-14T00:21:09.530Z,88.50
2022-11-14T00:23:37.213Z,88.50
2022-11-14T00:26:05.045Z,88.50
2022-11-14T00:28:33.113Z,88.50
2022-11-14T00:31:01.021Z,88.50
2022-11-14T00:33:29.686Z,88.50
2022-11-14T00:35:58.261Z,88.50
2022-11-14T00:38:27.732Z,88.50
2022-11-14T00:40:55.763Z,88.50
2022-11-14T00:43:23.581Z,88.50
2022-11-14T00:45:51.384Z,88.50
2022-11-14T00:48:19.330Z,88.50
2022-11-14T00:50:47.060Z,88.50
2022-11-14T00:53:14.916Z,88.50
2022-11-14T00:55:44.320Z,88.50
2022-11-14T00:58:12.052Z,88.50
2022-11-14T01:00:39.993Z,88.40
2022-11-14T01:03:07.834Z,88.40
2022-11-14T01:05:35.801Z,88.50
2022-11-14T01:08:03.532Z,88.40
2022-11-14T01:10:32.224Z,89.20
2022-11-14T01:13:01.282Z,88.50
2022-11-14T01:15:28.952Z,88.50
2022-11-14T01:17:56.779Z,88.50
2022-11-14T01:20:24.470Z,88.50
2022-11-14T01:22:52.157Z,88.50
2022-11-14T01:25:19.883Z,88.50
2022-11-14T01:27:47.633Z,88.50
2022-11-14T01:30:16.917Z,88.50
2022-11-14T01:32:44.619Z,88.50
2022-11-14T01:35:12.375Z,88.40
2022-11-14T01:37:40.152Z,88.40
2022-11-14T01:40:09.244Z,88.40
2022-11-14T01:42:37.143Z,88.40
2022-11-14T01:45:38.266Z,88.40
2022-11-14T01:48:14.200Z,88.40
2022-11-14T01:50:41.989Z,89.20
2022-11-14T01:53:09.951Z,88.40
2022-11-14T01:55:37.701Z,88.40
2022-11-14T01:58:05.535Z,88.30
2022-11-14T02:00:33.448Z,88.40
2022-11-14T02:03:01.859Z,88.60
2022-11-14T02:05:31.590Z,88.70
2022-11-14T02:07:59.802Z,88.80
2022-11-14T02:10:27.563Z,88.80
2022-11-14T02:12:55.472Z,88.80
2022-11-14T02:15:24.223Z,88.70
2022-11-14T02:17:51.969Z,88.70
2022-11-14T02:20:22.896Z,88.70
2022-11-14T02:22:50.642Z,88.60
2022-11-14T02:25:19.772Z,88.60
2022-11-14T02:27:47.536Z,88.50
2022-11-14T02:30:18.909Z,88.60
2022-11-14T02:35:36.011Z,88.60
2022-11-14T02:38:03.757Z,88.50
2022-11-14T02:40:31.613Z,88.50
2022-11-14T02:42:59.503Z,88.50
2022-11-14T02:45:27.697Z,88.50
2022-11-14T02:47:55.398Z,88.50
2022-11-14T02:50:23.261Z,88.50
2022-11-14T02:52:53.815Z,88.50
2022-11-14T02:55:21.599Z,88.40
2022-11-14T02:57:49.291Z,88.40
2022-11-14T03:00:18.203Z,88.40
2022-11-14T03:02:45.888Z,88.40
2022-11-14T03:05:13.607Z,88.40
2022-11-14T03:07:41.298Z,88.40
2022-11-14T03:10:11.679Z,88.40
2022-11-14T03:12:39.385Z,88.40
2022-11-14T03:15:08.792Z,88.40
2022-11-14T03:17:36.545Z,88.40
2022-11-14T03:20:05.472Z,88.40
2022-11-14T03:22:33.324Z,88.50
2022-11-14T03:25:01.149Z,88.40
2022-11-14T03:27:30.280Z,88.40
2022-11-14T03:29:57.982Z,88.40
2022-11-14T03:32:25.735Z,88.40
2022-11-14T03:34:53.550Z,89.20
2022-11-14T03:37:21.315Z,88.40
2022-11-14T03:39:49.069Z,88.40
2022-11-14T03:42:16.761Z,88.40
2022-11-14T03:44:45.822Z,88.40
2022-11-14T03:47:13.517Z,88.40
2022-11-14T03:49:41.396Z,88.40
2022-11-14T03:52:09.146Z,88.40
2022-11-14T03:54:36.857Z,88.30
2022-11-14T03:57:05.029Z,88.30
2022-11-14T03:59:32.802Z,88.30
2022-11-14T04:02:02.345Z,88.30
2022-11-14T04:04:30.037Z,88.30
2022-11-14T04:06:57.899Z,88.30
2022-11-14T04:09:25.688Z,88.30
2022-11-14T04:11:53.390Z,88.30
2022-11-14T04:14:21.128Z,88.30
2022-11-14T04:16:48.954Z,88.30
2022-11-14T04:19:17.998Z,88.30
2022-11-14T04:21:46.081Z,88.30
2022-11-14T04:24:13.810Z,88.30
2022-11-14T04:26:41.482Z,88.30
2022-11-14T04:29:09.251Z,88.30
2022-11-14T04:31:36.951Z,88.30
2022-11-14T04:34:04.736Z,88.40
2022-11-14T04:36:34.264Z,88.30
2022-11-14T04:39:02.325Z,88.30
2022-11-14T04:41:30.195Z,88.30
2022-11-14T04:43:58.112Z,88.30
2022-11-14T04:46:25.822Z,88.30
2022-11-14T04:48:53.605Z,88.40
2022-11-14T04:51:21.282Z,88.30
2022-11-14T04:53:50.300Z,88.30
2022-11-14T04:56:18.044Z,88.20
2022-11-14T04:58:45.857Z,88.20
2022-11-14T05:01:15.237Z,88.20
2022-11-14T05:03:42.998Z,88.30
2022-11-14T05:06:11.229Z,88.30
2022-11-14T05:08:38.969Z,88.20
2022-11-14T05:11:08.111Z,88.20
2022-11-14T05:13:35.835Z,88.30
2022-11-14T05:16:03.550Z,88.30
2022-11-14T05:18:31.583Z,88.20
2022-11-14T05:21:00.279Z,88.20
2022-11-14T05:23:28.895Z,88.20
2022-11-14T05:26:04.199Z,88.30
2022-11-14T05:28:33.384Z,88.30
2022-11-14T05:31:05.832Z,88.30
2022-11-14T05:33:33.583Z,88.30
2022-11-14T05:36:05.723Z,88.30
2022-11-14T05:38:33.633Z,88.30
2022-11-14T05:41:01.335Z,88.30
2022-11-14T05:43:31.048Z,88.30
2022-11-14T05:46:01.827Z,88.30
2022-11-14T05:48:30.912Z,88.30
2022-11-14T05:51:00.264Z,88.30
2022-11-14T05:53:28.887Z,88.30
2022-11-14T05:55:59.583Z,88.30
2022-11-14T05:58:28.513Z,88.30
2022-11-14T06:01:05.030Z,88.30
2022-11-14T06:03:34.094Z,88.30
2022-11-14T06:06:03.280Z,88.30
2022-11-14T06:08:31.616Z,88.30
2022-11-14T06:11:07.154Z,88.30
2022-11-14T06:13:36.677Z,88.30
2022-11-14T06:16:08.118Z,88.20
2022-11-14T06:18:37.464Z,88.30
2022-11-14T06:21:07.272Z,88.30
2022-11-14T06:23:35.456Z,88.30
2022-11-14T06:26:05.426Z,88.30
2022-11-14T06:28:33.498Z,88.30
2022-11-14T06:31:02.781Z,88.30
2022-11-14T06:33:36.254Z,88.30
2022-11-14T06:36:09.556Z,88.30
2022-11-14T06:38:39.308Z,88.20
2022-11-14T06:41:08.782Z,88.30
2022-11-14T06:43:37.263Z,88.20
2022-11-14T06:46:06.264Z,88.20
2022-11-14T06:48:35.728Z,88.20
2022-11-14T06:51:04.763Z,88.20
2022-11-14T06:53:35.435Z,88.20
2022-11-14T06:56:04.876Z,88.20
2022-11-14T06:58:34.258Z,88.30
2022-11-14T07:01:06.085Z,88.20
2022-11-14T07:03:35.391Z,88.20
2022-11-14T07:06:05.700Z,88.20
2022-11-14T07:08:35.096Z,88.30
2022-11-14T07:11:04.230Z,88.30
2022-11-14T07:13:33.056Z,88.30
2022-11-14T07:16:00.935Z,88.30
2022-11-14T07:18:31.527Z,88.30
2022-11-14T07:21:02.727Z,88.20
2022-11-14T07:23:32.091Z,88.30
2022-11-14T07:26:02.672Z,88.30
2022-11-14T07:28:32.474Z,88.30
2022-11-14T07:31:00.531Z,88.30
2022-11-14T07:33:28.463Z,88.40
2022-11-14T07:35:56.152Z,88.30
2022-11-14T07:38:25.534Z,88.30
2022-11-14T07:40:59.601Z,88.30
2022-11-14T07:43:28.846Z,88.40
2022-11-14T07:46:00.844Z,88.30
2022-11-14T07:48:29.256Z,88.30
2022-11-14T07:51:00.176Z,88.30
2022-11-14T07:53:29.820Z,88.40
2022-11-14T07:55:57.996Z,88.40
2022-11-14T07:58:25.746Z,88.30
2022-11-14T08:00:53.510Z,88.40
2022-11-14T08:03:21.282Z,88.30
2022-11-14T08:05:49.033Z,88.30
2022-11-14T08:08:16.721Z,88.30
2022-11-14T08:10:45.888Z,89.00
2022-11-14T08:16:09.345Z,88.20
2022-11-14T08:18:40.397Z,88.30
2022-11-14T08:21:08.354Z,88.30
2022-11-14T08:23:36.065Z,88.40
2022-11-14T08:26:05.223Z,88.40
2022-11-14T08:28:33.596Z,88.50
2022-11-14T08:31:02.620Z,88.40
2022-11-14T08:33:30.673Z,88.40
2022-11-14T08:36:02.127Z,88.40
2022-11-14T08:38:30.102Z,88.40
2022-11-14T08:40:59.639Z,88.30
2022-11-14T08:43:29.124Z,88.30
2022-11-14T08:46:01.478Z,88.40
2022-11-14T08:48:30.540Z,88.40
2022-11-14T08:50:58.966Z,88.40
2022-11-14T08:53:26.698Z,88.30
2022-11-14T08:55:54.493Z,88.30
2022-11-14T08:58:22.367Z,88.50
2022-11-14T09:00:51.940Z,88.40
2022-11-14T09:03:19.868Z,88.30
2022-11-14T09:05:52.392Z,88.30
2022-11-14T09:08:21.605Z,88.40
2022-11-14T09:10:49.596Z,88.50
2022-11-14T09:13:17.295Z,88.40
2022-11-14T09:15:45.630Z,88.40
2022-11-14T09:18:15.269Z,88.40
2022-11-14T09:20:43.004Z,88.30
2022-11-14T09:23:11.353Z,88.30
2022-11-14T09:25:39.159Z,88.30
2022-11-14T09:28:08.838Z,88.40
2022-11-14T09:30:38.025Z,88.30
2022-11-14T09:33:11.386Z,88.50
2022-11-14T09:35:41.272Z,88.40
2022-11-14T09:38:11.220Z,88.40
2022-11-14T09:40:52.545Z,88.40
2022-11-14T09:43:35.877Z,88.40
2022-11-14T09:46:04.699Z,88.40
2022-11-14T09:48:33.559Z,88.40
2022-11-14T09:51:10.154Z,88.40
2022-11-14T09:53:44.709Z,88.60
2022-11-14T09:56:15.820Z,88.50
2022-11-14T09:58:43.778Z,88.50
2022-11-14T10:01:19.101Z,88.40
2022-11-14T10:03:54.105Z,88.50
2022-11-14T10:06:29.304Z,88.40
2022-11-14T10:09:13.727Z,88.50
2022-11-14T10:11:48.170Z,88.50
2022-11-14T10:14:35.170Z,88.50
2022-11-14T10:17:15.729Z,88.50
2022-11-14T10:19:48.710Z,88.50
2022-11-14T10:22:28.594Z,88.50
2022-11-14T10:25:10.900Z,88.40
2022-11-14T10:27:44.979Z,88.60
2022-11-14T10:30:15.143Z,88.50
2022-11-14T10:33:04.973Z,88.50
2022-11-14T10:35:37.527Z,88.50
2022-11-14T10:38:15.449Z,88.50
2022-11-14T10:40:46.499Z,88.50
2022-11-14T10:43:24.862Z,88.60
2022-11-14T10:45:58.099Z,88.60
2022-11-14T10:48:32.482Z,88.50
2022-11-14T10:51:04.025Z,88.70
2022-11-14T10:53:44.577Z,88.50
2022-11-14T10:56:14.672Z,88.60
2022-11-14T10:58:48.775Z,88.60
2022-11-14T11:01:38.764Z,88.50
2022-11-14T11:04:21.826Z,89.30
2022-11-14T11:06:50.920Z,88.50
2022-11-14T11:09:45.065Z,88.40
2022-11-14T11:12:19.284Z,88.20
2022-11-14T11:14:48.992Z,88.20
2022-11-14T11:17:20.569Z,88.40
2022-11-14T11:19:49.148Z,88.50
2022-11-14T11:22:31.936Z,88.60
2022-11-14T11:25:01.246Z,88.70
2022-11-14T11:27:31.291Z,89.30
2022-11-14T11:30:10.048Z,88.40
2022-11-14T11:32:37.811Z,88.40
2022-11-14T11:35:13.139Z,88.30
2022-11-14T11:37:45.299Z,88.30
2022-11-14T11:40:19.797Z,88.40
2022-11-14T11:43:36.600Z,88.40
2022-11-14T11:45:47.226Z,88.50
2022-11-14T11:48:18.230Z,88.50
2022-11-14T11:50:46.072Z,88.40
2022-11-14T11:53:20.511Z,88.30
2022-11-14T11:55:52.355Z,88.20
2022-11-14T11:58:26.125Z,88.10
2022-11-14T12:00:55.798Z,88.20
2022-11-14T12:03:26.417Z,88.10
2022-11-14T12:06:04.036Z,88.20
2022-11-14T12:08:40.099Z,88.10
2022-11-14T12:11:15.320Z,88.20
2022-11-14T12:14:19.773Z,88.20
2022-11-14T12:17:27.013Z,88.10
2022-11-14T12:20:08.920Z,88.10
2022-11-14T12:23:16.595Z,88.10
2022-11-14T12:25:58.056Z,88.20
2022-11-14T12:28:43.170Z,88.30
2022-11-14T12:31:15.268Z,88.30
2022-11-14T12:33:50.219Z,88.20
2022-11-14T12:36:18.154Z,88.10
2022-11-14T12:38:48.144Z,88.10
2022-11-14T12:41:29.226Z,88.10
2022-11-14T12:44:20.079Z,88.10
2022-11-14T12:47:14.661Z,88.10
2022-11-14T12:49:58.665Z,88.00
2022-11-14T12:52:48.472Z,88.00
2022-11-14T12:55:54.151Z,88.00
2022-11-14T12:58:32.938Z,88.00
2022-11-14T13:01:19.658Z,87.90
2022-11-14T13:04:03.392Z,88.00
2022-11-14T13:06:43.418Z,87.90
2022-11-14T13:09:34.798Z,88.60
2022-11-14T13:12:44.065Z,87.90
2022-11-14T13:15:48.829Z,87.80
2022-11-14T13:18:41.372Z,87.70
2022-11-14T13:21:42.304Z,87.80
2022-11-14T13:24:14.160Z,87.70
2022-11-14T13:26:50.038Z,87.70
2022-11-14T13:29:48.470Z,87.70
2022-11-14T13:32:46.008Z,87.70
2022-11-14T13:35:18.003Z,87.70
2022-11-14T13:38:01.723Z,87.60
2022-11-14T13:40:36.965Z,87.60
2022-11-14T13:43:11.272Z,87.60
2022-11-14T13:45:49.953Z,87.50
2022-11-14T13:48:37.383Z,87.50
2022-11-14T13:51:36.718Z,87.50
2022-11-14T13:53:58.835Z,87.50
2022-11-14T13:56:35.915Z,87.40
2022-11-14T13:59:36.861Z,87.40
2022-11-14T14:02:33.842Z,87.40
2022-11-14T14:05:12.547Z,87.40
2022-11-14T14:08:04.874Z,87.40
2022-11-14T14:10:42.149Z,87.30
2022-11-14T14:13:22.768Z,87.40
2022-11-14T14:15:59.261Z,87.30
2022-11-14T14:18:43.195Z,87.30
2022-11-14T14:21:20.161Z,87.20
2022-11-14T14:23:58.101Z,87.20
2022-11-14T14:26:33.634Z,87.20
2022-11-14T14:29:13.360Z,87.20
2022-11-14T14:31:43.452Z,87.10
2022-11-14T14:34:30.057Z,87.20
2022-11-14T14:36:59.575Z,87.20
2022-11-14T14:39:30.142Z,87.10
2022-11-14T14:41:59.824Z,87.20
2022-11-14T14:44:31.894Z,87.10
2022-11-14T14:47:00.321Z,87.20
2022-11-14T14:49:31.240Z,87.20
2022-11-14T14:51:59.065Z,87.20
2022-11-14T14:54:30.340Z,87.20
2022-11-14T14:57:01.177Z,87.20
2022-11-14T14:59:31.221Z,87.20
2022-11-14T15:01:59.581Z,87.30
2022-11-14T15:04:29.352Z,87.20
2022-11-14T15:06:58.454Z,87.20
2022-11-14T15:09:32.217Z,87.20
2022-11-14T15:12:02.837Z,87.20
2022-11-14T15:14:33.088Z,87.10
2022-11-14T15:17:01.429Z,87.20
2022-11-14T15:19:35.824Z,87.10
2022-11-14T15:22:05.994Z,87.10
2022-11-14T15:24:34.972Z,87.00
2022-11-14T15:27:06.414Z,87.00
2022-11-14T15:29:34.151Z,87.00
2022-11-14T15:32:03.311Z,87.00
2022-11-14T15:34:33.418Z,87.00
2022-11-14T15:37:23.165Z,87.00
2022-11-14T15:39:52.478Z,87.10
2022-11-14T15:42:22.436Z,87.80
2022-11-14T15:44:50.736Z,87.10
2022-11-14T15:47:24.216Z,87.00
2022-11-14T15:50:03.337Z,87.10
2022-11-14T15:52:35.442Z,87.10
2022-11-14T15:55:10.184Z,87.10
2022-11-14T15:57:38.555Z,87.10
2022-11-14T16:00:07.213Z,87.00
2022-11-14T16:02:35.623Z,87.10
2022-11-14T16:05:05.175Z,87.10
2022-11-14T16:07:33.306Z,87.10
2022-11-14T16:10:01.221Z,87.10
2022-11-14T16:12:30.530Z,87.00
2022-11-14T16:14:58.240Z,87.10
2022-11-14T16:17:25.988Z,87.20
2022-11-14T16:19:53.843Z,87.10
2022-11-14T16:22:21.541Z,87.10
2022-11-14T16:24:49.273Z,87.10
2022-11-14T16:27:16.945Z,87.10
2022-11-14T16:29:46.241Z,87.20
2022-11-14T16:32:13.981Z,87.30
2022-11-14T16:34:41.782Z,87.30
2022-11-14T16:37:13.683Z,87.30
2022-11-14T16:39:41.520Z,87.20
2022-11-14T16:42:12.227Z,87.20
2022-11-14T16:44:43.891Z,87.20
2022-11-14T16:47:16.500Z,87.20
2022-11-14T16:49:44.181Z,87.20
2022-11-14T16:52:13.058Z,87.20
2022-11-14T16:54:40.798Z,87.10
2022-11-14T16:57:09.561Z,87.20
2022-11-14T16:59:37.317Z,87.30
2022-11-14T17:02:05.296Z,87.30
2022-11-14T17:04:34.429Z,87.20
2022-11-14T17:07:02.202Z,87.20
2022-11-14T17:09:29.976Z,87.10
2022-11-14T17:11:57.668Z,87.20
2022-11-14T17:14:25.348Z,87.10
2022-11-14T17:16:53.302Z,87.90
2022-11-14T17:19:21.070Z,87.20
2022-11-14T17:21:50.230Z,87.80
2022-11-14T17:24:18.299Z,87.10
2022-11-14T17:26:46.050Z,87.10
2022-11-14T17:29:14.138Z,87.10
2022-11-14T17:31:46.692Z,87.20
2022-11-14T17:34:14.801Z,87.10
2022-11-14T17:36:42.993Z,87.10
2022-11-14T17:39:12.214Z,87.20
2022-11-14T17:41:40.315Z,87.20
2022-11-14T17:44:09.739Z,87.10
2022-11-14T17:46:37.549Z,87.10
2022-11-14T17:49:05.461Z,87.10
2022-11-14T17:51:33.449Z,87.10
2022-11-14T17:54:01.741Z,87.10
2022-11-14T17:56:31.295Z,87.20
2022-11-14T17:58:59.025Z,87.20
2022-11-14T18:01:28.649Z,87.20
2022-11-14T18:04:01.644Z,87.90
2022-11-14T18:06:32.350Z,87.10
2022-11-14T18:09:04.907Z,87.20
2022-11-14T18:11:36.285Z,87.20
2022-11-14T18:14:04.029Z,87.20
2022-11-14T18:16:57.538Z,87.20
2022-11-14T18:19:19.559Z,87.20
2022-11-14T18:21:53.739Z,87.10
2022-11-14T18:24:23.590Z,87.10
2022-11-14T18:26:53.275Z,87.90
2022-11-14T18:29:20.990Z,87.20
2022-11-14T18:31:49.107Z,87.20
2022-11-14T18:34:16.879Z,87.30
2022-11-14T18:36:45.991Z,87.10
2022-11-14T18:39:13.966Z,87.10
2022-11-14T18:41:42.643Z,87.20
2022-11-14T18:44:11.720Z,87.30
2022-11-14T18:46:39.812Z,87.20
2022-11-14T18:49:07.710Z,87.10
2022-11-14T18:51:41.960Z,87.20
2022-11-14T18:54:12.691Z,87.20
2022-11-14T18:56:41.111Z,87.30
2022-11-14T18:59:09.143Z,87.20
2022-11-14T19:01:38.452Z,87.30
2022-11-14T19:04:08.439Z,87.20
2022-11-14T19:06:37.891Z,87.30
2022-11-14T19:09:11.107Z,87.90
2022-11-14T19:11:57.397Z,87.20
2022-11-14T19:14:25.482Z,87.20
2022-11-14T19:16:54.684Z,87.30
2022-11-14T19:19:22.550Z,87.30
2022-11-14T19:21:51.344Z,87.30
2022-11-14T19:24:19.694Z,87.20
2022-11-14T19:26:47.574Z,87.30
2022-11-14T19:29:15.459Z,87.30
2022-11-14T19:31:44.117Z,87.30
2022-11-14T19:34:13.299Z,87.30
2022-11-14T19:39:29.111Z,87.30
2022-11-14T19:41:56.953Z,87.30
2022-11-14T19:44:24.694Z,87.30
2022-11-14T19:46:52.460Z,87.30
2022-11-14T19:49:22.201Z,87.30
2022-11-14T19:51:50.179Z,87.30
2022-11-14T19:54:18.163Z,87.30
2022-11-14T19:56:45.935Z,87.40
2022-11-14T19:59:15.531Z,87.40
2022-11-14T20:01:45.945Z,87.40
2022-11-14T20:04:15.188Z,87.40
2022-11-14T20:06:44.323Z,87.40
2022-11-14T20:09:12.423Z,87.40
2022-11-14T20:11:40.226Z,87.40
2022-11-14T20:14:08.216Z,87.30
2022-11-14T20:16:37.985Z,87.30
2022-11-14T20:19:06.004Z,87.40
2022-11-14T20:21:35.384Z,87.40
2022-11-14T20:24:04.756Z,87.40
2022-11-14T20:26:32.568Z,87.40
2022-11-14T20:29:00.755Z,87.40
2022-11-14T20:31:30.120Z,87.30
2022-11-14T20:33:58.211Z,87.40
2022-11-14T20:36:38.981Z,87.40
2022-11-14T20:39:13.225Z,87.40
2022-11-14T20:41:40.972Z,87.40
2022-11-14T20:44:09.532Z,87.50
2022-11-14T20:46:37.230Z,87.40
2022-11-14T20:49:04.935Z,87.50
2022-11-14T20:51:33.387Z,87.40
2022-11-14T20:54:01.153Z,87.40
2022-11-14T20:56:30.297Z,87.40
2022-11-14T20:58:57.957Z,87.40
2022-11-14T21:01:25.637Z,87.30
2022-11-14T21:03:53.896Z,87.40
2022-11-14T21:06:21.556Z,87.40
2022-11-14T21:08:49.324Z,87.40
2022-11-14T21:11:18.293Z,87.40
2022-11-14T21:13:59.757Z,87.40
2022-11-14T21:16:31.438Z,87.40
2022-11-14T21:18:59.602Z,87.40
2022-11-14T21:21:28.252Z,87.40
2022-11-14T21:23:57.015Z,87.40
2022-11-14T21:26:26.641Z,87.30
2022-11-14T21:28:58.186Z,87.30
2022-11-14T21:31:30.746Z,87.40
2022-11-14T21:33:59.436Z,87.40
2022-11-14T21:36:45.564Z,87.40
2022-11-14T21:39:16.172Z,87.40
2022-11-14T21:41:45.358Z,87.50
2022-11-14T21:44:16.529Z,87.40
2022-11-14T21:46:46.174Z,87.40
2022-11-14T21:49:13.903Z,87.40
2022-11-14T21:51:41.856Z,87.30
2022-11-14T21:54:10.248Z,87.40
2022-11-14T21:56:38.377Z,87.40
2022-11-14T21:59:15.472Z,87.40
2022-11-14T22:02:03.225Z,87.30
2022-11-14T22:04:31.632Z,87.30
2022-11-14T22:06:59.608Z,87.40
2022-11-14T22:09:27.912Z,87.30
2022-11-14T22:11:56.059Z,87.30
2022-11-14T22:14:25.167Z,87.40
2022-11-14T22:16:53.046Z,87.30
2022-11-14T22:19:20.788Z,87.40
2022-11-14T22:21:48.964Z,87.60
2022-11-14T22:24:16.633Z,87.40
2022-11-14T22:26:44.401Z,87.40
2022-11-14T22:29:12.078Z,87.40
2022-11-14T22:31:41.163Z,87.30
2022-11-14T22:34:09.096Z,87.30
2022-11-14T22:36:36.875Z,87.30
2022-11-14T22:39:07.456Z,87.30
2022-11-14T22:41:35.209Z,87.40
2022-11-14T22:44:03.120Z,87.40
2022-11-14T22:46:31.138Z,87.40
2022-11-14T22:49:00.340Z,87.40
2022-11-14T22:51:28.989Z,87.30
2022-11-14T22:53:59.067Z,87.30
2022-11-14T22:56:29.115Z,87.30
2022-11-14T22:58:57.113Z,87.50
2022-11-14T23:01:26.661Z,87.30
2022-11-14T23:03:55.954Z,88.10
2022-11-14T23:06:25.970Z,87.40
2022-11-14T23:08:54.661Z,87.40
2022-11-14T23:11:24.453Z,87.30
2022-11-14T23:13:54.496Z,87.30
2022-11-14T23:16:24.377Z,87.30
2022-11-14T23:18:53.975Z,87.30
2022-11-14T23:21:26.322Z,87.30
2022-11-14T23:23:54.378Z,87.20
2022-11-14T23:26:22.101Z,87.10
2022-11-14T23:28:49.841Z,87.20
2022-11-14T23:31:19.275Z,87.30
2022-11-14T23:33:47.338Z,87.30
2022-11-14T23:36:15.375Z,87.30
2022-11-14T23:38:44.836Z,87.30
2022-11-14T23:41:18.126Z,87.40
2022-11-14T23:43:45.876Z,87.40
2022-11-14T23:46:14.359Z,87.40
2022-11-14T23:48:42.467Z,87.30
2022-11-14T23:51:10.535Z,87.60
2022-11-14T23:53:38.269Z,87.30
2022-11-14T23:56:07.959Z,87.30
2022-11-14T23:58:35.675Z,87.40
